Disclaimer

Please do not use the information listed here in-flight or in-navigation, as they are not provided to us by the airports but are provided by volunteers, so they might be outdated.

Search


Regions


Airport information page

Radio informations:
Tower (TWR) - 122.9 MHz
Approach (APP) - 118.6 MHz

Airport informations:
Latitude: 12° 16' 28.46" N
Longitude: 102° 19' 08.25" E
Elevation: 105 feet - 32 meters
Operating hours: N/A
Operating agency: Civil government, landing fees and diplomatic clearance may be required
Timezone: UTC+7
Fuel: N/A

Runway information:
05/23 - 4950 x 150 feet< - >1509 x 46 meters

Recent METARs:
VTBO 210000Z 14001KT 4000 BR FEW020 24/24 Q1012
VTBO 210000Z 14001KT 4000 BR FEW020 24/24 Q1012
VTBO 210100Z 14002KT 7000 FEW020 28/26 Q1013

Airport on the map: